METAR Data
IDs: Format: Raw Decoded Include TAF

Data at: 0024 UTC 25 Apr 2019

METAR for:KOOA (Oskaloosa Muni, IA, US)
Text:KOOA 250015Z AUTO 18007KT 10SM BKN030 17/10 A2982 RMK AO2 T01650096
Temperature: 16.5°C ( 62°F)
Dewpoint: 9.6°C ( 49°F) [RH = 64%]
Pressure (altimeter):29.82 inches Hg (1009.9 mb)
Winds:from the S (180 degrees) at 8 MPH (7 knots; 3.6 m/s)
Visibility:10 or more sm (16+ km)
Ceiling:3000 feet AGL
Clouds: broken clouds at 3000 feet AGL
QC Flag:automated observation with no human augmentation